createdAt,value
2023-04-23T00:00:15.691Z,646.13
2023-04-23T00:02:49.862Z,610.72
2023-04-23T00:05:18.825Z,610.58
2023-04-23T00:07:48.059Z,607.42
2023-04-23T00:10:16.729Z,612.63
2023-04-23T00:12:45.752Z,616.50
2023-04-23T00:15:15.409Z,578.42
2023-04-23T00:17:46.244Z,594.67
2023-04-23T00:20:16.316Z,651.80
2023-04-23T00:22:44.844Z,667.63
2023-04-23T00:25:13.363Z,691.42
2023-04-23T00:27:41.882Z,747.15
2023-04-23T00:30:10.759Z,670.50
2023-04-23T00:32:39.278Z,653.80
2023-04-23T00:35:08.537Z,686.78
2023-04-23T00:37:38.246Z,678.05
2023-04-23T00:40:08.014Z,677.72
2023-04-23T00:42:36.562Z,692.60
2023-04-23T00:45:05.847Z,693.97
2023-04-23T00:47:34.685Z,696.38
2023-04-23T00:50:03.163Z,703.05
2023-04-23T00:52:31.701Z,705.22
2023-04-23T00:55:01.330Z,685.50
2023-04-23T00:57:29.799Z,695.53
2023-04-23T00:59:58.461Z,665.78
2023-04-23T01:02:28.068Z,722.33
2023-04-23T01:04:57.534Z,710.97
2023-04-23T01:07:26.170Z,687.25
2023-04-23T01:09:54.558Z,717.38
2023-04-23T01:12:25.135Z,678.38
2023-04-23T01:14:54.188Z,737.90
2023-04-23T01:17:22.975Z,678.13
2023-04-23T01:19:51.556Z,685.47
2023-04-23T01:22:21.557Z,696.00
2023-04-23T01:24:50.048Z,691.35
2023-04-23T01:27:20.076Z,711.10
2023-04-23T01:29:49.215Z,691.03
2023-04-23T01:32:17.927Z,735.17
2023-04-23T01:34:47.999Z,722.85
2023-04-23T01:37:17.294Z,716.38
2023-04-23T01:39:47.014Z,722.97
2023-04-23T01:42:15.853Z,729.55
2023-04-23T01:44:44.324Z,722.17
2023-04-23T01:47:12.902Z,695.83
2023-04-23T01:49:41.256Z,705.45
2023-04-23T01:52:09.595Z,702.60
2023-04-23T01:54:38.154Z,703.00
2023-04-23T01:57:08.071Z,696.67
2023-04-23T01:59:36.476Z,705.47
2023-04-23T02:02:05.085Z,706.95
2023-04-23T02:04:33.720Z,714.80
2023-04-23T02:07:02.137Z,708.13
2023-04-23T02:09:30.597Z,689.95
2023-04-23T02:11:58.909Z,729.70
2023-04-23T02:14:28.726Z,695.70
2023-04-23T02:16:57.733Z,713.53
2023-04-23T02:19:26.216Z,711.33
2023-04-23T02:21:54.563Z,721.08
2023-04-23T02:24:22.889Z,706.75
2023-04-23T02:26:51.196Z,710.40
2023-04-23T02:29:19.480Z,708.60
2023-04-23T02:31:49.284Z,692.67
2023-04-23T02:34:17.636Z,676.75
2023-04-23T02:36:46.081Z,697.72
2023-04-23T02:39:14.428Z,734.80
2023-04-23T02:41:42.758Z,690.00
2023-04-23T02:44:11.083Z,695.38
2023-04-23T02:46:40.198Z,687.85
2023-04-23T02:49:10.081Z,716.97
2023-04-23T02:51:38.419Z,701.60
2023-04-23T02:54:07.071Z,699.53
2023-04-23T02:56:35.554Z,671.17
2023-04-23T02:59:03.922Z,655.83
2023-04-23T03:01:32.289Z,669.90
2023-04-23T03:04:01.299Z,695.03
2023-04-23T03:06:31.858Z,697.50
2023-04-23T03:09:00.276Z,671.20
2023-04-23T03:11:28.629Z,685.75
2023-04-23T03:13:56.969Z,675.47
2023-04-23T03:16:25.757Z,707.45
2023-04-23T03:18:54.109Z,672.03
2023-04-23T03:21:22.473Z,703.75
2023-04-23T03:23:52.303Z,690.95
2023-04-23T03:26:20.714Z,667.70
2023-04-23T03:28:49.089Z,685.20
2023-04-23T03:31:17.483Z,701.92
2023-04-23T03:33:45.873Z,691.97
2023-04-23T03:36:15.579Z,693.92
2023-04-23T03:38:44.006Z,679.40
2023-04-23T03:41:13.683Z,696.40
2023-04-23T03:43:42.020Z,687.35
2023-04-23T03:46:10.413Z,675.50
2023-04-23T03:48:38.938Z,678.63
2023-04-23T03:51:07.245Z,669.67
2023-04-23T03:53:35.831Z,688.15
2023-04-23T03:56:04.232Z,687.00
2023-04-23T03:58:33.917Z,684.47
2023-04-23T04:01:02.216Z,723.80
2023-04-23T04:03:30.727Z,704.72
2023-04-23T04:05:59.193Z,694.70
2023-04-23T04:08:27.781Z,694.63
2023-04-23T04:10:56.329Z,700.22
2023-04-23T04:13:24.649Z,681.28
2023-04-23T04:15:54.348Z,662.75
2023-04-23T04:18:22.704Z,705.75
2023-04-23T04:20:52.240Z,670.42
2023-04-23T04:23:20.593Z,693.65
2023-04-23T04:25:50.964Z,685.47
2023-04-23T04:28:19.262Z,685.95
2023-04-23T04:30:50.106Z,695.78
2023-04-23T04:33:20.383Z,682.65
2023-04-23T04:35:49.617Z,677.90
2023-04-23T04:38:18.397Z,730.92
2023-04-23T04:40:46.722Z,673.42
2023-04-23T04:43:16.598Z,683.90
2023-04-23T04:45:44.933Z,715.53
2023-04-23T04:48:13.424Z,739.67
2023-04-23T04:50:43.184Z,695.80
2023-04-23T04:53:11.727Z,712.03
2023-04-23T04:55:40.133Z,691.08
2023-04-23T04:58:08.552Z,744.35
2023-04-23T05:00:36.999Z,714.28
2023-04-23T05:03:06.184Z,705.95
2023-04-23T05:05:35.059Z,722.05
2023-04-23T05:08:04.756Z,722.50
2023-04-23T05:10:33.224Z,694.45
2023-04-23T05:13:02.238Z,740.05
2023-04-23T05:15:30.685Z,770.33
2023-04-23T05:17:59.136Z,721.13
2023-04-23T05:20:28.370Z,714.22
2023-04-23T05:22:56.834Z,729.25
2023-04-23T05:25:26.826Z,741.55
2023-04-23T05:27:55.172Z,751.95
2023-04-23T05:30:23.695Z,730.47
2023-04-23T05:32:52.237Z,755.60
2023-04-23T05:35:21.056Z,768.78
2023-04-23T05:37:49.444Z,767.00
2023-04-23T05:40:17.798Z,762.88
2023-04-23T05:42:47.530Z,659.35
2023-04-23T05:45:16.070Z,655.05
2023-04-23T05:47:44.475Z,703.92
2023-04-23T05:50:15.955Z,733.40
2023-04-23T05:52:44.554Z,753.92
2023-04-23T05:55:15.543Z,766.60
2023-04-23T05:57:44.049Z,769.55
2023-04-23T06:00:14.580Z,770.92
2023-04-23T06:02:43.372Z,854.10
2023-04-23T06:05:12.326Z,796.25
2023-04-23T06:07:41.348Z,771.13
2023-04-23T06:10:10.913Z,753.40
2023-04-23T06:12:39.855Z,775.80
2023-04-23T06:15:09.652Z,756.65
2023-04-23T06:17:39.789Z,750.63
2023-04-23T06:20:11.881Z,743.30
2023-04-23T06:22:40.515Z,731.60
2023-04-23T06:25:09.828Z,750.25
2023-04-23T06:27:38.173Z,728.40
2023-04-23T06:30:08.008Z,739.38
2023-04-23T06:32:37.814Z,861.45
2023-04-23T06:35:07.781Z,726.65
2023-04-23T06:37:36.737Z,710.63
2023-04-23T06:40:05.561Z,687.63
2023-04-23T06:42:33.880Z,715.88
2023-04-23T06:45:06.263Z,694.88
2023-04-23T06:47:35.078Z,699.92
2023-04-23T06:50:05.801Z,688.17
2023-04-23T06:52:34.163Z,659.20
2023-04-23T06:55:02.690Z,702.28
2023-04-23T06:57:31.258Z,657.78
2023-04-23T06:59:59.626Z,663.95
2023-04-23T07:02:28.137Z,656.30
2023-04-23T07:04:59.657Z,664.90
2023-04-23T07:07:48.239Z,635.78
2023-04-23T07:10:18.165Z,646.78
2023-04-23T07:12:47.124Z,620.15
2023-04-23T07:15:15.906Z,632.30
2023-04-23T07:17:44.420Z,644.58
2023-04-23T07:20:13.217Z,656.55
2023-04-23T07:24:03.830Z,661.47
2023-04-23T07:26:08.861Z,690.15
2023-04-23T07:28:50.721Z,702.38
2023-04-23T07:31:21.072Z,854.03
2023-04-23T07:33:49.376Z,824.63
2023-04-23T07:36:17.800Z,747.63
2023-04-23T07:38:47.613Z,748.42
2023-04-23T07:41:16.092Z,754.03
2023-04-23T07:43:44.539Z,738.47
2023-04-23T07:46:20.675Z,734.85
2023-04-23T07:48:49.508Z,729.03
2023-04-23T07:51:18.432Z,725.95
2023-04-23T07:54:15.579Z,743.80
2023-04-23T07:56:43.946Z,749.45
2023-04-23T07:59:12.307Z,753.78
2023-04-23T08:01:42.016Z,770.15
2023-04-23T08:04:10.671Z,757.20
2023-04-23T08:06:39.203Z,728.85
2023-04-23T08:16:16.431Z,711.92
2023-04-23T09:15:53.392Z,561.33
2023-04-23T09:18:23.621Z,639.42
2023-04-23T09:20:52.445Z,615.25
2023-04-23T09:23:23.353Z,575.83
2023-04-23T09:25:52.717Z,600.25
2023-04-23T09:28:21.344Z,609.95
2023-04-23T09:30:50.635Z,636.95
2023-04-23T09:33:19.282Z,583.40
2023-04-23T09:35:50.532Z,562.33
2023-04-23T09:38:21.369Z,685.75
2023-04-23T09:40:50.226Z,539.83
2023-04-23T09:43:18.656Z,601.38
2023-04-23T09:45:50.305Z,601.47
2023-04-23T09:48:18.812Z,621.08
2023-04-23T09:50:48.519Z,526.60
2023-04-23T09:53:16.992Z,542.65
2023-04-23T09:55:46.834Z,616.55
2023-04-23T09:58:16.419Z,505.05
2023-04-23T10:00:44.945Z,485.95
2023-04-23T10:03:13.543Z,557.50
2023-04-23T10:08:16.321Z,483.80
2023-04-23T10:11:02.533Z,483.13
2023-04-23T10:13:38.517Z,481.13
2023-04-23T10:16:21.148Z,432.45
2023-04-23T10:18:58.251Z,480.30
2023-04-23T10:21:36.686Z,499.45
2023-04-23T10:24:16.564Z,483.80
2023-04-23T10:26:45.559Z,487.83
2023-04-23T10:29:16.635Z,455.10
2023-04-23T10:31:55.864Z,525.78
2023-04-23T10:34:26.809Z,547.53
2023-04-23T10:36:56.738Z,463.85
2023-04-23T10:39:30.434Z,524.65
2023-04-23T10:41:59.405Z,456.83
2023-04-23T10:44:56.518Z,459.92
2023-04-23T10:47:23.479Z,475.77
2023-04-23T10:49:53.164Z,513.75
2023-04-23T10:52:51.592Z,535.05
2023-04-23T10:55:22.683Z,555.60
2023-04-23T10:58:02.690Z,568.65
2023-04-23T11:00:51.025Z,515.67
2023-04-23T11:03:44.109Z,553.55
2023-04-23T11:06:16.388Z,442.75
2023-04-23T11:08:54.841Z,487.08
2023-04-23T11:11:44.071Z,506.95
2023-04-23T11:14:15.086Z,503.33
2023-04-23T11:16:43.765Z,446.55
2023-04-23T11:19:13.467Z,524.38
2023-04-23T11:22:02.986Z,547.30
2023-04-23T11:24:33.006Z,538.17
2023-04-23T11:27:19.811Z,535.13
2023-04-23T11:30:00.154Z,555.20
2023-04-23T11:33:03.993Z,505.58
2023-04-23T11:35:57.266Z,501.98
2023-04-23T11:38:35.816Z,451.15
2023-04-23T11:41:12.538Z,466.20
2023-04-23T11:44:29.395Z,444.13
2023-04-23T11:47:16.610Z,500.75
2023-04-23T11:49:50.849Z,458.45
2023-04-23T11:52:24.893Z,536.97
2023-04-23T11:54:57.637Z,518.47
2023-04-23T11:58:07.768Z,521.75
2023-04-23T12:00:41.179Z,500.85
2023-04-23T12:03:09.960Z,515.53
2023-04-23T12:05:42.453Z,505.67
2023-04-23T12:08:42.062Z,515.03
2023-04-23T12:11:21.129Z,506.95
2023-04-23T12:13:49.717Z,506.38
2023-04-23T12:16:19.465Z,524.10
2023-04-23T12:18:47.785Z,530.58
2023-04-23T12:21:18.166Z,551.00
2023-04-23T12:23:46.640Z,529.55
2023-04-23T12:26:17.022Z,550.28
2023-04-23T12:28:49.422Z,527.50
2023-04-23T12:31:22.939Z,519.83
2023-04-23T12:34:00.881Z,508.98
2023-04-23T12:36:45.716Z,509.20
2023-04-23T12:39:23.099Z,499.52
2023-04-23T12:41:53.217Z,533.90
2023-04-23T12:44:22.167Z,504.55
2023-04-23T12:46:59.098Z,528.40
2023-04-23T12:49:28.208Z,525.67
2023-04-23T12:52:00.927Z,536.45
2023-04-23T12:54:31.192Z,524.45
2023-04-23T12:57:02.608Z,564.15
2023-04-23T12:59:31.413Z,528.28
2023-04-23T13:02:04.865Z,623.60
2023-04-23T13:04:35.064Z,520.20
2023-04-23T13:07:03.730Z,566.85
2023-04-23T13:09:32.121Z,547.13
2023-04-23T13:12:02.470Z,500.05
2023-04-23T13:14:32.013Z,510.95
2023-04-23T13:17:01.957Z,495.13
2023-04-23T13:19:30.399Z,523.70
2023-04-23T13:21:58.843Z,574.45
2023-04-23T13:24:27.232Z,515.90
2023-04-23T13:26:56.229Z,557.92
2023-04-23T13:29:27.218Z,555.90
2023-04-23T13:31:55.816Z,503.88
2023-04-23T13:34:25.876Z,502.30
2023-04-23T13:36:54.975Z,514.08
2023-04-23T13:39:23.684Z,517.67
2023-04-23T13:42:06.268Z,482.40
2023-04-23T13:44:37.946Z,512.25
2023-04-23T13:47:06.440Z,515.60
2023-04-23T13:49:36.131Z,542.65
2023-04-23T13:52:06.926Z,494.10
2023-04-23T13:54:36.477Z,549.88
2023-04-23T13:57:05.278Z,546.75
2023-04-23T13:59:33.634Z,511.25
2023-04-23T14:02:02.138Z,477.60
2023-04-23T14:04:30.640Z,498.27
2023-04-23T14:07:00.535Z,433.83
2023-04-23T14:09:29.888Z,493.75
2023-04-23T14:11:58.526Z,486.08
2023-04-23T14:14:26.929Z,497.00
2023-04-23T14:16:55.300Z,456.98
2023-04-23T14:19:23.886Z,473.23
2023-04-23T14:21:52.247Z,471.23
2023-04-23T14:24:28.833Z,473.15
2023-04-23T14:26:57.121Z,429.23
2023-04-23T14:29:30.739Z,489.70
2023-04-23T14:31:59.285Z,424.17
2023-04-23T14:34:28.016Z,444.48
2023-04-23T14:36:56.382Z,505.60
2023-04-23T14:39:26.899Z,433.63
2023-04-23T14:41:55.340Z,525.65
2023-04-23T14:44:26.391Z,504.38
2023-04-23T14:46:54.844Z,467.63
2023-04-23T14:49:24.170Z,509.70
2023-04-23T14:51:58.477Z,475.08
2023-04-23T14:56:56.784Z,668.63
2023-04-23T14:59:25.633Z,751.17
2023-04-23T15:01:54.238Z,738.88
2023-04-23T15:04:22.804Z,755.38
2023-04-23T15:06:51.398Z,721.47
2023-04-23T15:09:20.517Z,746.15
2023-04-23T15:11:52.040Z,704.15
2023-04-23T15:14:21.781Z,735.42
2023-04-23T15:16:50.589Z,662.33
2023-04-23T15:20:17.417Z,786.35
2023-04-23T15:22:56.530Z,783.70
2023-04-23T15:25:25.345Z,837.13
2023-04-23T15:27:57.959Z,789.88
2023-04-23T15:31:06.358Z,807.70
2023-04-23T15:34:06.698Z,752.70
2023-04-23T15:36:44.044Z,737.22
2023-04-23T15:39:27.625Z,701.58
2023-04-23T15:42:27.925Z,720.28
2023-04-23T15:49:26.756Z,679.83
2023-04-23T15:51:55.712Z,746.97
2023-04-23T15:54:24.887Z,710.28
2023-04-23T15:56:58.675Z,736.88
2023-04-23T15:59:27.442Z,700.25
2023-04-23T16:03:04.390Z,729.70
2023-04-23T16:05:54.430Z,819.88
2023-04-23T16:08:49.610Z,691.80
2023-04-23T16:11:36.514Z,695.33
2023-04-23T16:14:05.978Z,701.08
2023-04-23T16:20:04.937Z,741.13
2023-04-23T16:22:46.827Z,707.15
2023-04-23T16:25:21.063Z,681.95
2023-04-23T16:31:27.429Z,687.80
2023-04-23T16:34:12.417Z,729.35
2023-04-23T16:40:17.469Z,685.13
2023-04-23T16:43:12.823Z,659.75
2023-04-23T16:48:43.883Z,623.60
2023-04-23T16:51:12.594Z,624.03
2023-04-23T18:08:58.572Z,728.78
2023-04-23T18:11:31.084Z,740.47
2023-04-23T18:14:02.756Z,723.92
2023-04-23T18:16:31.592Z,710.20
2023-04-23T18:19:01.233Z,708.60
2023-04-23T18:21:30.046Z,715.60
2023-04-23T18:24:00.476Z,853.10
2023-04-23T18:26:29.314Z,720.88
2023-04-23T18:28:57.994Z,753.72
2023-04-23T18:31:36.745Z,804.88
2023-04-23T18:34:24.044Z,750.33
2023-04-23T18:37:07.999Z,747.00
2023-04-23T18:39:47.749Z,730.83
2023-04-23T18:42:18.326Z,733.40
2023-04-23T18:45:03.879Z,740.83
2023-04-23T18:47:52.382Z,753.03
2023-04-23T18:50:47.574Z,749.45
2023-04-23T18:56:05.514Z,728.47
2023-04-23T18:58:46.042Z,746.30
2023-04-23T19:01:28.552Z,735.70
2023-04-23T19:03:59.940Z,745.30
2023-04-23T19:06:51.861Z,741.03
2023-04-23T19:38:04.684Z,715.55
2023-04-23T19:40:33.405Z,748.70
2023-04-23T19:43:02.144Z,707.67
2023-04-23T19:45:32.317Z,719.53
2023-04-23T19:48:07.046Z,775.58
2023-04-23T19:50:39.458Z,722.92
2023-04-23T19:53:09.469Z,716.20
2023-04-23T19:55:37.821Z,707.30
2023-04-23T19:58:07.110Z,713.50
2023-04-23T20:00:40.008Z,721.47
2023-04-23T20:03:09.542Z,702.67
2023-04-23T20:05:38.155Z,728.28
2023-04-23T20:08:14.986Z,711.78
2023-04-23T20:10:43.523Z,716.05
2023-04-23T20:13:11.957Z,722.53
2023-04-23T20:15:40.339Z,708.92
2023-04-23T20:18:08.999Z,713.08
2023-04-23T20:20:39.128Z,728.67
2023-04-23T20:23:08.890Z,712.75
2023-04-23T20:25:37.401Z,713.25
2023-04-23T20:28:05.788Z,709.58
2023-04-23T20:30:34.694Z,717.25
2023-04-23T20:33:03.351Z,709.03
2023-04-23T20:35:31.895Z,719.30
2023-04-23T20:38:00.852Z,711.78
2023-04-23T20:40:34.349Z,718.40
2023-04-23T20:43:04.488Z,696.05
2023-04-23T20:45:34.502Z,718.50
2023-04-23T20:48:03.608Z,717.80
2023-04-23T20:50:32.282Z,696.60
2023-04-23T20:53:00.652Z,699.75
2023-04-23T20:55:30.337Z,723.53
2023-04-23T20:57:58.674Z,709.17
2023-04-23T21:00:27.896Z,710.53
2023-04-23T21:02:56.479Z,706.03
2023-04-23T21:05:24.906Z,743.78
2023-04-23T21:07:53.329Z,697.65
2023-04-23T21:10:21.915Z,687.78
2023-04-23T21:12:51.819Z,682.30
2023-04-23T21:15:20.178Z,684.60
2023-04-23T21:17:48.652Z,690.33
2023-04-23T21:20:17.036Z,685.05
2023-04-23T21:22:45.380Z,697.72
2023-04-23T21:25:13.730Z,687.55
2023-04-23T21:27:47.262Z,714.72
2023-04-23T21:30:23.799Z,724.60
2023-04-23T21:32:52.798Z,683.55
2023-04-23T21:35:21.198Z,704.42
2023-04-23T21:37:49.611Z,704.30
2023-04-23T21:40:17.987Z,708.53
2023-04-23T21:42:47.510Z,716.55
2023-04-23T21:45:17.438Z,702.88
2023-04-23T21:47:45.916Z,708.88
2023-04-23T21:50:17.361Z,725.22
2023-04-23T21:52:46.105Z,712.75
2023-04-23T21:55:14.602Z,724.53
2023-04-23T21:57:42.934Z,692.28
2023-04-23T22:00:13.884Z,721.33
2023-04-23T22:02:46.496Z,702.85
2023-04-23T22:05:16.965Z,713.28
2023-04-23T22:07:45.345Z,706.05
2023-04-23T22:10:15.261Z,703.90
2023-04-23T22:12:44.240Z,705.15
2023-04-23T22:15:16.006Z,686.95
2023-04-23T22:17:50.168Z,721.33
2023-04-23T22:20:19.480Z,701.67
2023-04-23T22:22:48.116Z,708.92
2023-04-23T22:25:17.388Z,696.00
2023-04-23T22:27:45.773Z,695.78
2023-04-23T22:30:14.444Z,713.85
2023-04-23T22:32:42.885Z,724.42
2023-04-23T22:35:12.931Z,711.72
2023-04-23T22:37:41.460Z,712.38
2023-04-23T22:40:11.053Z,719.83
2023-04-23T22:42:39.472Z,715.95
2023-04-23T22:45:08.674Z,729.83
2023-04-23T22:47:37.524Z,703.38
2023-04-23T22:50:07.733Z,726.92
2023-04-23T22:52:37.793Z,710.70
2023-04-23T22:55:07.408Z,689.95
2023-04-23T22:57:36.127Z,708.95
2023-04-23T23:00:07.548Z,701.70
2023-04-23T23:02:36.074Z,725.05
2023-04-23T23:05:04.675Z,687.10
2023-04-23T23:07:33.010Z,683.67
2023-04-23T23:10:03.696Z,700.08
2023-04-23T23:12:32.092Z,715.22
2023-04-23T23:15:02.118Z,702.67
2023-04-23T23:17:30.507Z,687.05
2023-04-23T23:19:58.916Z,679.05
2023-04-23T23:22:27.842Z,721.25
2023-04-23T23:24:56.327Z,684.22
2023-04-23T23:27:26.035Z,688.33
2023-04-23T23:29:54.394Z,683.47
2023-04-23T23:32:22.725Z,711.15
2023-04-23T23:34:51.550Z,711.90
2023-04-23T23:37:19.904Z,710.28
2023-04-23T23:39:48.235Z,695.53
2023-04-23T23:42:16.555Z,687.55
2023-04-23T23:44:46.477Z,674.47
2023-04-23T23:47:14.921Z,671.42
2023-04-23T23:49:43.544Z,682.00
2023-04-23T23:52:12.029Z,680.63
2023-04-23T23:54:40.381Z,675.80
2023-04-23T23:57:08.822Z,692.72
2023-04-23T23:59:37.194Z,687.65
